Time;durP1;ratioP1;P1;durP2;ratioP2;P2;SDS_P1;SDS_P2;PMS_P1;PMS_P2;Temp;Humidity;BMP_temperature;BMP_pressure;BME280_temperature;BME280_humidity;BME280_pressure;Samples;Min_cycle;Max_cycle;Signal;HPM_P1;HPM_P2
2023/09/03 00:00:54;;;;;;;8.93;4.00;;;15.40;99.90;;;;;;5020456;28;20867;-61
2023/09/03 00:03:20;;;;;;;8.50;3.50;;;15.30;99.90;;;;;;5018049;28;20868;-60
2023/09/03 00:05:50;;;;;;;4.70;3.97;;;15.30;99.90;;;;;;5016974;28;20446;-61
2023/09/03 00:08:15;;;;;;;7.17;3.30;;;15.30;99.90;;;;;;5021927;28;20331;-61
2023/09/03 00:10:41;;;;;;;3.87;3.33;;;15.30;99.90;;;;;;5025229;28;21007;-63
2023/09/03 00:13:07;;;;;;;6.13;3.33;;;15.40;99.90;;;;;;5020828;28;20237;-60
2023/09/03 00:15:32;;;;;;;5.17;3.43;;;15.30;99.90;;;;;;5024166;28;20183;-60
2023/09/03 00:17:58;;;;;;;4.03;3.07;;;15.20;99.90;;;;;;5027107;28;20266;-61
2023/09/03 00:20:24;;;;;;;7.80;4.17;;;15.20;99.90;;;;;;5026635;28;20262;-61
2023/09/03 00:22:50;;;;;;;7.37;3.60;;;15.20;99.90;;;;;;5024245;28;20333;-63
2023/09/03 00:25:15;;;;;;;6.63;3.83;;;15.20;99.90;;;;;;5025459;28;20237;-60
2023/09/03 00:27:41;;;;;;;4.80;3.50;;;15.10;99.90;;;;;;5016544;28;20178;-62
2023/09/03 00:30:07;;;;;;;9.20;4.30;;;15.10;99.90;;;;;;5023046;28;20210;-61
2023/09/03 00:32:33;;;;;;;10.13;3.60;;;15.00;99.90;;;;;;5025171;28;20227;-61
2023/09/03 00:34:58;;;;;;;5.67;3.60;;;15.00;99.90;;;;;;5022847;28;20426;-61
2023/09/03 00:37:24;;;;;;;4.93;3.53;;;15.00;99.90;;;;;;5018884;28;20270;-61
2023/09/03 00:39:50;;;;;;;3.73;3.27;;;15.00;99.90;;;;;;5020376;28;20214;-62
2023/09/03 00:42:15;;;;;;;5.90;3.17;;;15.00;99.90;;;;;;5025036;28;20604;-62
2023/09/03 00:44:41;;;;;;;6.10;3.10;;;15.00;99.90;;;;;;5021704;28;20228;-61
2023/09/03 00:47:07;;;;;;;4.87;3.27;;;15.00;99.90;;;;;;5018728;28;20184;-62
2023/09/03 00:49:37;;;;;;;5.70;3.20;;;15.00;99.90;;;;;;5023700;28;20188;-63
2023/09/03 00:52:04;;;;;;;4.70;3.50;;;15.00;99.90;;;;;;5023272;28;20475;-65
2023/09/03 00:54:30;;;;;;;9.43;3.40;;;14.90;99.90;;;;;;5022476;28;20536;-61
2023/09/03 00:56:56;;;;;;;5.70;3.40;;;14.90;99.90;;;;;;5022878;28;20434;-61
2023/09/03 00:59:23;;;;;;;4.83;3.43;;;14.90;99.90;;;;;;5019617;28;20183;-61
2023/09/03 01:01:51;;;;;;;3.70;3.40;;;14.90;99.90;;;;;;5017768;28;20203;-64
2023/09/03 01:04:18;;;;;;;3.63;3.00;;;14.80;99.90;;;;;;5020864;28;20469;-61
2023/09/03 01:06:45;;;;;;;6.60;3.83;;;14.80;99.90;;;;;;5024299;28;20978;-61
2023/09/03 01:09:11;;;;;;;4.83;3.50;;;14.80;99.90;;;;;;5023036;28;20478;-61
2023/09/03 01:11:48;;;;;;;5.60;3.50;;;14.80;99.90;;;;;;5022193;28;20958;-61
2023/09/03 01:14:36;;;;;;;5.20;2.93;;;14.80;99.90;;;;;;5027236;28;20459;-63
2023/09/03 01:17:30;;;;;;;5.70;3.20;;;14.80;99.90;;;;;;5025011;28;20446;-62
2023/09/03 01:20:09;;;;;;;5.07;3.37;;;14.70;99.90;;;;;;5024119;28;20423;-63
2023/09/03 01:22:59;;;;;;;12.30;3.20;;;14.70;99.90;;;;;;5026255;28;20418;-61
2023/09/03 01:25:30;;;;;;;3.83;3.10;;;14.70;99.90;;;;;;5021765;28;21043;-61
2023/09/03 01:28:20;;;;;;;4.10;3.17;;;14.60;99.90;;;;;;5022175;28;20442;-62
2023/09/03 01:30:47;;;;;;;9.23;3.47;;;14.60;99.90;;;;;;5020015;28;20438;-64
2023/09/03 01:33:13;;;;;;;3.93;3.40;;;14.60;99.90;;;;;;5021710;28;20467;-61
2023/09/03 01:35:40;;;;;;;5.23;3.40;;;14.60;99.90;;;;;;5023487;28;20438;-62
2023/09/03 01:38:06;;;;;;;6.00;3.57;;;14.60;99.90;;;;;;5028055;28;20446;-61
2023/09/03 01:40:32;;;;;;;4.20;3.20;;;14.50;99.90;;;;;;5024006;28;20438;-61
2023/09/03 01:42:58;;;;;;;3.87;3.10;;;14.50;99.90;;;;;;5020124;28;20251;-61
2023/09/03 01:45:32;;;;;;;7.60;3.20;;;14.50;99.90;;;;;;5018720;28;20461;-61
2023/09/03 01:48:07;;;;;;;6.30;3.83;;;14.40;99.90;;;;;;5025595;28;20623;-62
2023/09/03 01:51:04;;;;;;;4.23;3.40;;;14.40;99.90;;;;;;5024006;28;20444;-62
2023/09/03 01:53:42;;;;;;;4.27;2.90;;;14.40;99.90;;;;;;5025577;28;20776;-63
2023/09/03 01:56:09;;;;;;;6.00;3.30;;;14.40;99.90;;;;;;5019347;28;20441;-61
2023/09/03 01:58:38;;;;;;;3.10;2.80;;;14.40;99.90;;;;;;5022095;28;20433;-62
2023/09/03 02:01:03;;;;;;;8.20;3.70;;;14.30;99.90;;;;;;5020776;28;20541;-63
2023/09/03 02:03:31;;;;;;;3.93;2.90;;;14.30;99.90;;;;;;5026462;28;20911;-62
2023/09/03 02:05:56;;;;;;;7.83;3.20;;;14.30;99.90;;;;;;5025521;28;20184;-61
2023/09/03 02:08:22;;;;;;;4.23;3.20;;;14.30;99.90;;;;;;5027875;28;20598;-61
2023/09/03 02:10:48;;;;;;;7.30;3.50;;;14.20;99.90;;;;;;5028975;28;20175;-62
2023/09/03 02:13:13;;;;;;;3.80;3.33;;;14.20;99.90;;;;;;5027627;28;20207;-61
2023/09/03 02:15:39;;;;;;;4.80;3.87;;;14.20;99.90;;;;;;5022914;28;20168;-61
2023/09/03 02:18:04;;;;;;;6.83;3.23;;;14.20;99.90;;;;;;5025196;28;20175;-60
2023/09/03 02:20:30;;;;;;;3.10;2.80;;;14.20;99.90;;;;;;5027395;28;20164;-62
2023/09/03 02:22:55;;;;;;;3.20;2.90;;;14.20;99.90;;;;;;5026137;28;20196;-62
2023/09/03 02:25:21;;;;;;;5.20;3.10;;;14.20;99.90;;;;;;5020283;28;20181;-61
2023/09/03 02:27:47;;;;;;;3.90;2.90;;;14.20;99.90;;;;;;5021837;28;20274;-64
2023/09/03 02:30:12;;;;;;;3.73;3.20;;;14.10;99.90;;;;;;5021095;28;20686;-61
2023/09/03 02:32:38;;;;;;;7.60;3.20;;;14.10;99.90;;;;;;5021227;28;20208;-61
2023/09/03 02:35:04;;;;;;;5.57;3.07;;;14.00;99.90;;;;;;5018168;28;20168;-61
2023/09/03 02:37:29;;;;;;;5.37;3.10;;;14.00;99.90;;;;;;5028430;28;20168;-61
2023/09/03 02:39:55;;;;;;;10.13;2.80;;;13.90;99.90;;;;;;5025573;28;20499;-61
2023/09/03 02:42:21;;;;;;;3.13;2.80;;;13.90;99.90;;;;;;5023406;28;20168;-62
2023/09/03 02:44:46;;;;;;;19.90;3.53;;;13.90;99.90;;;;;;5018960;28;20664;-61
2023/09/03 02:47:12;;;;;;;3.20;2.60;;;13.90;99.90;;;;;;5020593;28;20168;-61
2023/09/03 02:49:38;;;;;;;3.40;3.10;;;13.90;99.90;;;;;;5023721;28;20271;-61
2023/09/03 02:52:04;;;;;;;3.47;2.80;;;13.90;99.90;;;;;;5024409;28;21164;-62
2023/09/03 02:54:29;;;;;;;5.07;2.93;;;13.90;99.90;;;;;;5022411;28;20188;-62
2023/09/03 02:56:55;;;;;;;4.13;3.30;;;13.80;99.90;;;;;;5024859;28;20251;-61
2023/09/03 02:59:20;;;;;;;3.10;2.77;;;13.80;99.90;;;;;;5020929;28;20218;-61
2023/09/03 03:01:46;;;;;;;6.13;3.47;;;13.80;99.90;;;;;;5023335;28;20190;-61
2023/09/03 03:04:12;;;;;;;5.10;3.13;;;13.80;99.90;;;;;;5022135;28;20215;-61
2023/09/03 03:06:37;;;;;;;5.30;3.10;;;13.90;99.90;;;;;;5024627;28;20191;-61
2023/09/03 03:09:04;;;;;;;3.40;2.90;;;13.80;99.90;;;;;;5023301;28;20570;-61
2023/09/03 03:11:30;;;;;;;3.97;3.03;;;13.80;99.90;;;;;;5018478;28;20195;-62
2023/09/03 03:13:55;;;;;;;12.07;3.33;;;13.80;99.90;;;;;;5022471;28;20791;-62
2023/09/03 03:16:21;;;;;;;6.13;3.10;;;13.70;99.90;;;;;;5024391;28;20537;-61
2023/09/03 03:18:47;;;;;;;6.23;3.47;;;13.70;99.90;;;;;;5019178;28;20187;-62
2023/09/03 03:21:18;;;;;;;3.83;3.30;;;13.70;99.90;;;;;;5025750;28;20214;-63
2023/09/03 03:23:49;;;;;;;3.37;3.00;;;13.80;99.90;;;;;;5020996;28;20189;-61
2023/09/03 03:26:15;;;;;;;4.47;3.40;;;13.70;99.90;;;;;;5027779;28;20414;-61
2023/09/03 03:28:40;;;;;;;7.00;4.77;;;13.70;99.90;;;;;;5020113;28;20430;-61
2023/09/03 03:31:11;;;;;;;6.90;3.73;;;13.70;99.90;;;;;;5023950;28;20672;-61
2023/09/03 03:33:38;;;;;;;3.73;3.30;;;13.70;99.90;;;;;;5018601;28;20805;-63
2023/09/03 03:36:04;;;;;;;5.40;3.57;;;13.70;99.90;;;;;;5015822;28;20438;-61
2023/09/03 03:38:30;;;;;;;5.07;3.90;;;13.70;99.90;;;;;;5018884;28;20944;-61
2023/09/03 03:41:10;;;;;;;20.20;4.27;;;13.60;99.90;;;;;;5025500;28;20472;-61
2023/09/03 03:43:37;;;;;;;8.57;3.53;;;13.60;99.90;;;;;;5021576;28;20271;-61
2023/09/03 03:46:03;;;;;;;8.33;4.07;;;13.60;99.90;;;;;;5024585;28;20434;-64
2023/09/03 03:48:28;;;;;;;15.00;4.63;;;13.60;99.90;;;;;;5024917;28;20923;-61
2023/09/03 03:50:57;;;;;;;25.00;4.60;;;13.60;99.90;;;;;;5027298;28;20471;-61
2023/09/03 03:53:22;;;;;;;23.07;4.53;;;13.60;99.90;;;;;;5023982;28;21013;-61
2023/09/03 03:55:59;;;;;;;14.20;3.87;;;13.60;99.90;;;;;;5026668;28;20441;-62
2023/09/03 03:58:25;;;;;;;25.87;4.93;;;13.50;99.90;;;;;;5022031;28;20179;-62
2023/09/03 04:00:51;;;;;;;5.93;3.97;;;13.50;99.90;;;;;;5022916;28;20891;-61
2023/09/03 04:03:17;;;;;;;19.73;4.10;;;13.40;99.90;;;;;;5024366;28;20532;-62
2023/09/03 04:05:42;;;;;;;12.30;3.90;;;13.40;99.90;;;;;;5026013;28;20167;-62
2023/09/03 04:08:08;;;;;;;9.37;3.77;;;13.40;99.90;;;;;;5026484;28;20564;-61
2023/09/03 04:10:33;;;;;;;6.13;4.27;;;13.40;99.90;;;;;;5023165;28;20258;-61
2023/09/03 04:12:59;;;;;;;5.10;4.03;;;13.40;99.90;;;;;;5015869;28;20708;-63
2023/09/03 04:15:25;;;;;;;3.70;3.40;;;13.40;99.90;;;;;;5022483;28;20188;-63
2023/09/03 04:17:50;;;;;;;4.40;3.73;;;13.40;99.90;;;;;;5027726;28;20183;-61
2023/09/03 04:20:16;;;;;;;6.60;4.30;;;13.40;99.90;;;;;;5025525;28;20180;-61
2023/09/03 04:22:41;;;;;;;13.10;4.77;;;13.40;99.90;;;;;;5021974;28;20184;-64
2023/09/03 04:25:07;;;;;;;7.07;4.50;;;13.40;99.90;;;;;;5025074;28;20759;-62
2023/09/03 04:27:33;;;;;;;5.63;4.13;;;13.50;99.90;;;;;;5026530;28;20192;-61
2023/09/03 04:29:58;;;;;;;5.27;4.10;;;13.50;99.90;;;;;;5023315;28;20188;-61
2023/09/03 04:32:24;;;;;;;16.93;4.20;;;13.50;99.90;;;;;;5023788;28;20365;-61
2023/09/03 04:34:51;;;;;;;17.93;4.30;;;13.50;99.90;;;;;;5022346;28;20210;-62
2023/09/03 04:37:16;;;;;;;22.87;4.30;;;13.40;99.90;;;;;;5025636;28;20180;-61
2023/09/03 04:39:42;;;;;;;8.73;4.10;;;13.30;99.90;;;;;;5016474;28;20581;-63
2023/09/03 04:42:08;;;;;;;11.33;4.50;;;13.20;99.90;;;;;;5022389;28;20585;-63
2023/09/03 04:44:37;;;;;;;29.73;4.27;;;13.20;99.90;;;;;;5025331;28;20707;-61
2023/09/03 04:47:04;;;;;;;12.70;4.50;;;13.20;99.90;;;;;;5028554;28;20555;-61
2023/09/03 04:49:29;;;;;;;10.40;3.97;;;13.10;99.90;;;;;;5022815;28;20441;-61
2023/09/03 04:51:55;;;;;;;6.63;4.13;;;13.10;99.90;;;;;;5028808;28;20461;-61
2023/09/03 04:54:20;;;;;;;5.87;4.00;;;13.20;99.90;;;;;;5030720;28;20286;-61
2023/09/03 04:56:47;;;;;;;20.90;3.97;;;13.20;99.90;;;;;;5027278;28;20180;-62
2023/09/03 04:59:13;;;;;;;4.60;3.53;;;13.20;99.90;;;;;;5028302;28;20175;-62
2023/09/03 05:01:38;;;;;;;12.33;4.00;;;13.20;99.90;;;;;;5027871;28;20450;-62
2023/09/03 05:04:05;;;;;;;9.80;4.27;;;13.20;99.90;;;;;;5027045;28;20696;-61
2023/09/03 05:06:30;;;;;;;5.40;4.10;;;13.20;99.90;;;;;;5027692;28;20196;-62
2023/09/03 05:08:56;;;;;;;7.77;4.50;;;13.20;99.90;;;;;;5028804;28;20496;-61
2023/09/03 05:11:21;;;;;;;9.90;4.80;;;13.30;99.90;;;;;;5027001;28;20560;-61
2023/09/03 05:13:47;;;;;;;13.97;5.30;;;13.30;99.90;;;;;;5024555;28;20203;-62
2023/09/03 05:16:13;;;;;;;9.90;4.60;;;13.30;99.90;;;;;;5028894;28;20179;-61
2023/09/03 05:18:38;;;;;;;10.50;5.00;;;13.30;99.90;;;;;;5026196;28;20461;-61
2023/09/03 05:21:08;;;;;;;10.07;4.83;;;13.30;99.90;;;;;;5022882;28;20172;-61
2023/09/03 05:23:35;;;;;;;9.37;5.10;;;13.30;99.90;;;;;;5023006;28;20192;-62
2023/09/03 05:26:00;;;;;;;8.50;5.20;;;13.30;99.90;;;;;;5027922;28;20489;-61
2023/09/03 05:28:26;;;;;;;5.27;3.73;;;13.30;99.90;;;;;;5025801;28;20438;-61
2023/09/03 05:30:52;;;;;;;7.40;4.30;;;13.30;99.90;;;;;;5024727;28;20180;-62
2023/09/03 05:33:17;;;;;;;6.30;4.30;;;13.30;99.90;;;;;;5027849;28;20625;-61
2023/09/03 05:35:43;;;;;;;10.20;4.20;;;13.30;99.90;;;;;;5022268;28;20585;-61
2023/09/03 05:38:08;;;;;;;12.63;4.57;;;13.30;99.90;;;;;;5026671;28;20588;-61
2023/09/03 05:40:34;;;;;;;7.67;4.70;;;13.30;99.90;;;;;;5021101;28;20343;-61
2023/09/03 05:43:00;;;;;;;6.90;4.13;;;13.20;99.90;;;;;;5025397;28;20282;-61
2023/09/03 05:45:25;;;;;;;6.70;5.50;;;13.20;99.90;;;;;;5029826;28;20258;-61
2023/09/03 05:47:51;;;;;;;6.30;4.83;;;13.30;99.90;;;;;;5023091;28;20195;-61
2023/09/03 05:50:16;;;;;;;6.57;4.93;;;13.30;99.90;;;;;;5028542;28;20733;-61
2023/09/03 05:52:43;;;;;;;7.90;5.30;;;13.40;99.90;;;;;;5030287;28;20207;-60
2023/09/03 05:55:09;;;;;;;5.70;5.10;;;13.40;99.90;;;;;;5025056;28;20504;-63
2023/09/03 05:57:36;;;;;;;6.77;5.53;;;13.50;99.90;;;;;;5020335;28;20798;-61
2023/09/03 06:00:02;;;;;;;7.80;5.13;;;13.50;99.90;;;;;;5027375;28;20496;-63
2023/09/03 06:02:28;;;;;;;5.60;4.87;;;13.60;99.90;;;;;;5029935;28;20490;-61
2023/09/03 06:04:53;;;;;;;5.17;4.67;;;13.60;99.90;;;;;;5029472;28;20458;-61
2023/09/03 06:07:19;;;;;;;6.93;4.97;;;13.70;99.90;;;;;;5031121;28;20271;-61
2023/09/03 06:09:45;;;;;;;4.37;4.00;;;13.70;99.90;;;;;;5026501;28;20207;-61
2023/09/03 06:12:11;;;;;;;5.90;4.13;;;13.80;99.90;;;;;;5021737;28;20231;-61
2023/09/03 06:14:36;;;;;;;5.27;4.77;;;13.80;99.90;;;;;;5025545;28;20465;-63
2023/09/03 06:17:04;;;;;;;4.90;4.50;;;13.80;99.90;;;;;;5029493;28;20259;-61
2023/09/03 06:19:30;;;;;;;4.03;3.70;;;13.80;99.90;;;;;;5025030;28;20168;-61
2023/09/03 06:21:55;;;;;;;7.27;4.80;;;13.80;99.90;;;;;;5022523;28;20984;-61
2023/09/03 06:24:22;;;;;;;5.00;4.40;;;13.90;99.90;;;;;;5029209;28;20504;-61
2023/09/03 06:26:47;;;;;;;4.77;4.20;;;14.00;99.90;;;;;;5026434;28;20188;-61
2023/09/03 06:29:13;;;;;;;4.50;4.10;;;14.10;99.90;;;;;;5023173;28;20834;-61
2023/09/03 06:31:38;;;;;;;5.03;4.30;;;14.20;99.90;;;;;;5028195;28;20284;-61
2023/09/03 06:34:04;;;;;;;4.10;3.53;;;14.20;99.90;;;;;;5029481;28;20203;-62
2023/09/03 06:36:30;;;;;;;4.73;4.17;;;14.40;99.90;;;;;;5026176;28;20222;-60
2023/09/03 06:38:55;;;;;;;7.03;3.43;;;14.40;99.90;;;;;;5021622;28;20262;-63
2023/09/03 06:41:21;;;;;;;5.47;3.93;;;14.50;99.90;;;;;;5027595;28;20179;-61
2023/09/03 06:43:47;;;;;;;5.23;3.70;;;14.60;99.90;;;;;;5025281;28;20233;-62
2023/09/03 06:46:12;;;;;;;5.37;3.90;;;14.60;99.90;;;;;;5023031;28;20253;-61
2023/09/03 06:48:38;;;;;;;6.30;5.03;;;14.70;99.90;;;;;;5007406;28;20206;-61
2023/09/03 06:51:04;;;;;;;5.00;4.27;;;14.80;99.90;;;;;;5027635;28;20168;-61
2023/09/03 06:53:30;;;;;;;7.63;5.10;;;14.90;99.90;;;;;;5029353;28;20218;-62
2023/09/03 06:55:57;;;;;;;12.90;4.87;;;15.00;99.90;;;;;;5021318;28;20436;-61
2023/09/03 06:58:23;;;;;;;6.40;4.40;;;15.10;99.90;;;;;;5020956;28;20263;-62
2023/09/03 07:00:48;;;;;;;7.13;3.80;;;15.20;99.90;;;;;;5019044;28;20479;-60
2023/09/03 07:03:14;;;;;;;4.73;4.10;;;15.30;99.90;;;;;;5026317;28;20477;-61
2023/09/03 07:05:41;;;;;;;5.70;4.70;;;15.40;99.90;;;;;;5022604;28;20191;-64
2023/09/03 07:08:07;;;;;;;5.07;4.17;;;15.50;99.90;;;;;;5015919;28;20234;-63
2023/09/03 07:10:33;;;;;;;5.83;4.20;;;15.50;99.90;;;;;;5022223;28;20442;-62
2023/09/03 07:12:59;;;;;;;5.47;4.30;;;15.60;99.90;;;;;;5025078;28;20492;-61
2023/09/03 07:15:25;;;;;;;5.53;3.80;;;15.70;99.90;;;;;;5023868;28;20435;-61
2023/09/03 07:17:50;;;;;;;8.80;4.10;;;15.80;99.90;;;;;;5021876;28;20264;-61
2023/09/03 07:20:16;;;;;;;5.53;4.10;;;15.90;99.90;;;;;;5025036;28;20224;-63
2023/09/03 07:22:42;;;;;;;7.27;4.70;;;16.00;99.90;;;;;;5023173;28;20745;-62
2023/09/03 07:25:09;;;;;;;5.03;4.20;;;16.10;99.90;;;;;;5023398;28;20271;-61
2023/09/03 07:27:35;;;;;;;5.80;4.13;;;16.10;99.90;;;;;;5023530;28;20270;-60
2023/09/03 07:30:00;;;;;;;4.80;3.90;;;16.20;99.90;;;;;;5022669;28;20509;-63
2023/09/03 07:32:26;;;;;;;3.97;3.60;;;16.30;99.90;;;;;;5023130;28;20235;-60
2023/09/03 07:34:53;;;;;;;4.47;4.00;;;16.40;99.90;;;;;;5023191;28;20704;-61
2023/09/03 07:37:19;;;;;;;4.67;4.23;;;16.50;99.90;;;;;;5027325;28;20233;-63
2023/09/03 07:39:46;;;;;;;4.43;4.03;;;16.60;99.90;;;;;;5020555;28;20435;-60
2023/09/03 07:42:11;;;;;;;6.67;3.70;;;16.70;99.90;;;;;;5021187;28;20179;-61
2023/09/03 07:44:37;;;;;;;5.47;3.87;;;16.90;99.90;;;;;;5027441;28;20481;-62
2023/09/03 07:47:03;;;;;;;3.97;3.57;;;17.00;99.90;;;;;;5025972;28;20180;-62
2023/09/03 07:49:28;;;;;;;5.73;4.13;;;17.10;99.90;;;;;;5022091;28;20660;-61
2023/09/03 07:51:54;;;;;;;4.80;3.70;;;17.20;99.90;;;;;;5023654;28;20694;-61
2023/09/03 07:54:20;;;;;;;5.40;4.10;;;17.30;99.90;;;;;;5023051;28;20199;-61
2023/09/03 07:56:45;;;;;;;5.53;3.63;;;17.30;99.90;;;;;;5026308;28;20523;-64
2023/09/03 07:59:11;;;;;;;6.27;3.67;;;17.40;99.90;;;;;;5019150;28;20176;-61
2023/09/03 08:01:36;;;;;;;4.10;3.70;;;17.50;99.90;;;;;;5024791;28;20195;-61
2023/09/03 08:04:03;;;;;;;4.70;3.20;;;17.70;99.90;;;;;;5026175;28;20217;-61
2023/09/03 08:06:29;;;;;;;9.93;3.03;;;17.80;99.90;;;;;;5023478;28;20175;-62
2023/09/03 08:08:55;;;;;;;6.60;3.67;;;17.80;99.90;;;;;;5025029;28;20959;-61
2023/09/03 08:11:21;;;;;;;4.83;2.90;;;18.00;99.90;;;;;;5027476;28;20203;-61
2023/09/03 08:13:51;;;;;;;5.73;3.80;;;18.10;99.90;;;;;;5020131;28;20664;-64
2023/09/03 08:16:18;;;;;;;6.10;3.87;;;18.20;99.90;;;;;;5018667;28;20445;-61
2023/09/03 08:18:43;;;;;;;3.97;3.50;;;18.40;99.90;;;;;;5017879;28;20935;-61
2023/09/03 08:21:09;;;;;;;4.70;3.30;;;18.50;99.90;;;;;;5028061;28;20437;-61
2023/09/03 08:23:34;;;;;;;7.30;3.53;;;18.60;99.90;;;;;;5031470;28;20618;-63
2023/09/03 08:26:00;;;;;;;5.13;3.23;;;18.70;99.90;;;;;;5030158;28;20188;-61
2023/09/03 08:28:25;;;;;;;9.03;3.37;;;18.80;99.90;;;;;;5020482;28;20287;-64
2023/09/03 08:30:51;;;;;;;6.43;3.37;;;18.90;99.90;;;;;;5025916;28;20176;-61
2023/09/03 08:33:17;;;;;;;15.83;2.97;;;19.00;99.90;;;;;;5029684;28;20614;-64
2023/09/03 08:35:44;;;;;;;3.30;3.00;;;19.20;99.90;;;;;;5029780;28;20183;-62
2023/09/03 08:38:09;;;;;;;4.30;3.33;;;19.30;99.90;;;;;;5025558;28;20242;-62
2023/09/03 08:40:36;;;;;;;4.90;3.93;;;19.40;99.90;;;;;;5023295;28;20450;-64
2023/09/03 08:43:06;;;;;;;4.87;3.47;;;19.50;99.90;;;;;;5022900;28;20227;-62
2023/09/03 08:45:36;;;;;;;4.17;3.40;;;19.60;99.90;;;;;;5027334;28;20442;-65
2023/09/03 08:48:02;;;;;;;3.30;2.90;;;19.70;99.90;;;;;;5025623;28;20484;-63
2023/09/03 08:50:29;;;;;;;3.10;2.60;;;19.80;99.90;;;;;;5026825;28;20442;-62
2023/09/03 08:52:56;;;;;;;4.67;2.93;;;19.90;99.90;;;;;;5027389;28;20210;-61
2023/09/03 08:55:24;;;;;;;8.17;3.10;;;20.10;99.90;;;;;;5023444;28;20454;-62
2023/09/03 08:57:54;;;;;;;4.10;2.50;;;20.20;99.90;;;;;;5023718;28;20441;-62
2023/09/03 09:00:19;;;;;;;5.17;2.70;;;20.30;99.90;;;;;;5027559;28;20442;-62
2023/09/03 09:02:47;;;;;;;5.50;2.67;;;20.40;99.90;;;;;;5026897;28;20462;-62
2023/09/03 09:05:14;;;;;;;2.87;2.50;;;20.50;99.90;;;;;;5028633;28;20186;-63
2023/09/03 09:07:40;;;;;;;2.83;2.27;;;20.60;99.90;;;;;;5022487;28;20817;-64
2023/09/03 09:10:10;;;;;;;2.60;2.40;;;20.70;99.90;;;;;;5022898;28;20430;-61
2023/09/03 09:13:02;;;;;;;4.77;2.97;;;20.80;99.90;;;;;;5026306;28;20220;-62
2023/09/03 09:15:28;;;;;;;4.50;2.50;;;20.90;99.90;;;;;;5022284;28;20445;-62
2023/09/03 09:17:54;;;;;;;4.93;2.50;;;21.00;99.90;;;;;;5030358;28;20516;-63
2023/09/03 09:20:19;;;;;;;6.63;2.40;;;21.10;99.90;;;;;;5026054;28;20184;-63
2023/09/03 09:22:49;;;;;;;3.53;2.90;;;21.20;99.90;;;;;;5026373;28;20215;-62
2023/09/03 09:25:25;;;;;;;3.60;2.60;;;21.40;99.90;;;;;;5021586;28;20199;-64
2023/09/03 09:27:55;;;;;;;3.37;2.60;;;21.50;99.90;;;;;;5021335;28;20453;-65
2023/09/03 09:30:24;;;;;;;4.03;2.57;;;21.60;99.90;;;;;;5018094;28;20929;-65
2023/09/03 09:33:10;;;;;;;3.53;2.13;;;21.80;99.90;;;;;;5020668;28;20462;-63
2023/09/03 09:35:36;;;;;;;2.50;2.30;;;21.90;99.90;;;;;;5021622;28;20576;-62
2023/09/03 09:38:09;;;;;;;7.30;2.73;;;22.00;99.90;;;;;;5021042;28;20525;-63
2023/09/03 09:40:36;;;;;;;3.10;2.20;;;22.20;99.90;;;;;;5022319;28;20178;-63
2023/09/03 09:43:04;;;;;;;1.90;1.80;;;22.30;99.90;;;;;;5024264;28;20465;-65
2023/09/03 09:45:44;;;;;;;3.90;2.27;;;22.40;99.90;;;;;;5023271;28;20549;-62
2023/09/03 09:48:10;;;;;;;3.00;2.23;;;22.50;99.90;;;;;;5023785;28;20468;-61
2023/09/03 09:50:38;;;;;;;4.67;2.20;;;22.60;99.90;;;;;;5024580;28;20438;-62
2023/09/03 09:53:06;;;;;;;3.40;2.23;;;22.70;99.90;;;;;;5023242;28;20482;-63
2023/09/03 09:55:32;;;;;;;3.50;2.03;;;22.80;99.90;;;;;;5023179;28;20434;-63
2023/09/03 09:58:01;;;;;;;3.77;2.27;;;22.90;99.90;;;;;;5015541;28;20931;-65
2023/09/03 10:00:38;;;;;;;3.20;2.40;;;22.90;95.80;;;;;;5021840;28;20963;-62
2023/09/03 10:03:05;;;;;;;3.80;2.70;;;23.00;93.70;;;;;;5026431;28;20480;-62
2023/09/03 10:05:31;;;;;;;2.80;2.37;;;23.00;92.00;;;;;;5022772;28;20461;-63
2023/09/03 10:07:59;;;;;;;6.03;2.60;;;23.00;86.70;;;;;;5025205;28;20466;-64
2023/09/03 10:10:25;;;;;;;3.63;2.03;;;23.10;87.10;;;;;;5018042;28;20189;-64
2023/09/03 10:12:50;;;;;;;3.23;2.40;;;23.20;88.90;;;;;;5026244;28;20998;-61
2023/09/03 10:15:16;;;;;;;3.23;2.37;;;23.20;90.70;;;;;;5023276;28;20187;-62
2023/09/03 10:17:49;;;;;;;3.00;2.10;;;23.30;88.00;;;;;;5022016;28;20263;-64
2023/09/03 10:20:17;;;;;;;3.87;2.70;;;23.40;90.60;;;;;;5026405;28;20176;-62
2023/09/03 10:22:46;;;;;;;2.43;2.23;;;23.50;92.90;;;;;;5026704;28;20438;-62
2023/09/03 10:25:15;;;;;;;3.00;2.20;;;23.50;88.60;;;;;;5025381;28;20576;-62
2023/09/03 10:27:46;;;;;;;3.00;2.10;;;23.60;89.20;;;;;;5028400;28;20457;-61
2023/09/03 10:30:15;;;;;;;3.07;2.77;;;23.70;86.50;;;;;;5002344;28;20438;-63
2023/09/03 10:32:42;;;;;;;3.77;2.40;;;23.80;91.70;;;;;;5018527;28;20494;-62
2023/09/03 10:35:09;;;;;;;2.83;2.53;;;23.90;91.20;;;;;;5025821;28;20530;-63
2023/09/03 10:37:39;;;;;;;3.70;2.17;;;23.90;91.10;;;;;;5019232;28;20444;-62
2023/09/03 10:40:22;;;;;;;3.87;2.20;;;24.00;80.70;;;;;;5023260;28;20436;-61
2023/09/03 10:42:52;;;;;;;3.60;2.73;;;24.10;80.90;;;;;;5021928;28;20465;-65
2023/09/03 10:45:18;;;;;;;7.60;2.40;;;24.10;77.30;;;;;;5024166;28;21037;-63
2023/09/03 10:48:02;;;;;;;2.30;1.90;;;24.20;80.20;;;;;;5017450;28;20442;-64
2023/09/03 10:50:50;;;;;;;2.93;2.33;;;24.40;75.00;;;;;;5022380;28;21175;-62
2023/09/03 10:53:38;;;;;;;2.73;2.13;;;24.40;72.10;;;;;;5024612;28;21098;-62
2023/09/03 10:56:13;;;;;;;2.50;2.30;;;24.60;73.30;;;;;;5018107;28;20446;-61
2023/09/03 10:58:58;;;;;;;4.00;2.33;;;24.60;75.30;;;;;;5023411;28;20480;-62
2023/09/03 11:01:33;;;;;;;2.27;1.80;;;24.70;71.00;;;;;;5016373;28;20438;-63
2023/09/03 11:04:01;;;;;;;2.90;2.43;;;24.80;72.40;;;;;;5021798;28;20454;-62
2023/09/03 11:06:31;;;;;;;4.23;2.67;;;24.90;73.00;;;;;;5022675;28;21242;-62
2023/09/03 11:08:59;;;;;;;2.80;2.37;;;24.90;69.90;;;;;;5018053;28;20465;-62
2023/09/03 11:11:35;;;;;;;3.90;2.50;;;24.90;68.90;;;;;;5021444;28;20438;-62
2023/09/03 11:14:02;;;;;;;3.23;2.20;;;25.00;64.40;;;;;;5016104;28;20454;-64
2023/09/03 11:16:29;;;;;;;3.67;2.27;;;25.00;66.90;;;;;;5026096;28;20414;-62
2023/09/03 11:18:56;;;;;;;6.70;2.23;;;25.00;65.90;;;;;;5019863;28;22136;-62
2023/09/03 11:21:25;;;;;;;2.93;2.40;;;25.00;68.80;;;;;;5021272;28;20496;-62
2023/09/03 11:24:20;;;;;;;3.33;2.27;;;25.10;70.20;;;;;;5018625;28;20608;-61
2023/09/03 11:27:02;;;;;;;3.60;2.13;;;25.20;73.10;;;;;;5021864;28;20449;-64
2023/09/03 11:29:28;;;;;;;3.03;2.10;;;25.40;72.10;;;;;;5017919;28;20508;-61
2023/09/03 11:31:54;;;;;;;3.30;2.07;;;25.40;70.80;;;;;;5017641;28;21051;-63
2023/09/03 11:34:22;;;;;;;2.30;2.10;;;25.30;71.10;;;;;;5021442;28;20202;-62
2023/09/03 11:36:49;;;;;;;3.90;2.30;;;25.40;69.70;;;;;;5019625;28;20176;-63
2023/09/03 11:39:15;;;;;;;2.30;2.00;;;25.50;70.50;;;;;;5015968;28;24637;-62
2023/09/03 11:41:45;;;;;;;3.63;2.13;;;25.70;72.20;;;;;;5015123;28;20418;-63
2023/09/03 11:44:19;;;;;;;3.20;2.17;;;25.80;67.60;;;;;;5023902;28;20497;-63
2023/09/03 11:47:05;;;;;;;2.13;1.90;;;26.00;64.80;;;;;;5011643;28;20444;-62
2023/09/03 11:49:30;;;;;;;2.97;2.33;;;26.10;61.80;;;;;;5019364;28;20430;-64
2023/09/03 11:52:12;;;;;;;2.27;1.70;;;26.20;63.00;;;;;;5023327;28;20554;-62
2023/09/03 11:54:38;;;;;;;2.60;2.17;;;26.30;65.10;;;;;;5020216;28;20664;-61
2023/09/03 11:57:08;;;;;;;2.90;2.17;;;26.40;64.50;;;;;;5021545;28;20445;-62
2023/09/03 11:59:33;;;;;;;2.43;2.23;;;26.40;64.10;;;;;;5004390;28;20210;-62
2023/09/03 12:01:59;;;;;;;2.80;2.07;;;26.50;63.10;;;;;;5021162;28;20218;-64
2023/09/03 12:04:26;;;;;;;3.60;2.20;;;26.50;61.50;;;;;;5024624;28;20284;-62
2023/09/03 12:06:52;;;;;;;3.83;2.13;;;26.60;62.50;;;;;;5024844;28;20625;-62
2023/09/03 12:09:24;;;;;;;3.07;2.13;;;26.70;62.20;;;;;;5024266;28;20194;-63
2023/09/03 12:11:50;;;;;;;4.57;2.50;;;26.80;62.90;;;;;;5018881;28;20195;-62
2023/09/03 12:14:29;;;;;;;2.63;2.37;;;26.80;61.80;;;;;;5024618;28;20207;-63
2023/09/03 12:16:54;;;;;;;2.37;2.17;;;26.80;59.70;;;;;;5021408;28;20690;-63
2023/09/03 12:19:20;;;;;;;2.43;2.00;;;26.70;59.50;;;;;;5021639;28;20433;-62
2023/09/03 12:21:50;;;;;;;2.40;2.20;;;26.60;59.80;;;;;;5023120;28;20197;-62
2023/09/03 12:24:16;;;;;;;3.30;2.20;;;26.50;61.20;;;;;;5024338;28;20710;-64
2023/09/03 12:26:42;;;;;;;3.00;1.90;;;26.50;61.70;;;;;;5020746;28;20184;-61
2023/09/03 12:29:21;;;;;;;2.53;1.77;;;26.40;61.60;;;;;;5021030;28;20171;-62
2023/09/03 12:31:47;;;;;;;2.90;1.93;;;26.30;62.00;;;;;;5020209;28;20171;-63
2023/09/03 12:34:14;;;;;;;2.70;2.33;;;26.10;64.30;;;;;;5023166;28;20205;-63
2023/09/03 12:36:56;;;;;;;3.77;2.00;;;26.20;67.50;;;;;;5020856;28;20187;-65
2023/09/03 12:39:35;;;;;;;2.20;2.00;;;26.30;67.40;;;;;;5021487;28;20247;-62
2023/09/03 12:42:02;;;;;;;2.40;2.00;;;26.30;65.10;;;;;;5020864;28;20453;-64
2023/09/03 12:44:28;;;;;;;3.10;1.90;;;26.10;63.50;;;;;;5023138;28;20214;-62
2023/09/03 12:46:55;;;;;;;2.60;2.07;;;26.10;66.20;;;;;;5018306;28;20183;-62
2023/09/03 12:49:21;;;;;;;3.97;1.90;;;26.30;66.40;;;;;;5019049;28;20179;-62